createdAt,value
2018-06-19T00:00:02.508Z,17.31
2018-06-19T00:02:31.653Z,17.32
2018-06-19T00:05:01.004Z,17.32
2018-06-19T00:07:30.100Z,17.31
2018-06-19T00:09:59.301Z,17.24
2018-06-19T00:12:28.673Z,17.23
2018-06-19T00:14:57.715Z,17.20
2018-06-19T00:17:26.912Z,17.11
2018-06-19T00:19:56.424Z,17.15
2018-06-19T00:22:25.854Z,17.12
2018-06-19T00:24:54.948Z,17.07
2018-06-19T00:27:24.320Z,17.06
2018-06-19T00:29:53.418Z,17.02
2018-06-19T00:32:22.532Z,16.97
2018-06-19T00:34:51.936Z,16.96
2018-06-19T00:37:21.040Z,16.89
2018-06-19T00:39:50.184Z,16.82
2018-06-19T00:42:19.592Z,16.78
2018-06-19T00:44:48.720Z,16.81
2018-06-19T00:47:17.934Z,16.81
2018-06-19T00:49:47.180Z,16.77
2018-06-19T00:52:16.319Z,16.72
2018-06-19T00:54:45.422Z,16.69
2018-06-19T00:57:14.773Z,16.69
2018-06-19T00:59:43.985Z,16.66
2018-06-19T01:02:13.097Z,16.66
2018-06-19T01:04:42.964Z,16.66
2018-06-19T01:07:12.101Z,16.65
2018-06-19T01:09:41.224Z,16.59
2018-06-19T01:12:10.781Z,16.58
2018-06-19T01:14:39.900Z,16.53
2018-06-19T01:17:08.980Z,16.44
2018-06-19T01:19:38.372Z,16.42
2018-06-19T01:22:07.485Z,16.37
2018-06-19T01:24:36.681Z,16.38
2018-06-19T01:27:06.224Z,16.36
2018-06-19T01:29:35.322Z,16.32
2018-06-19T01:32:04.454Z,16.31
2018-06-19T01:34:33.584Z,16.29
2018-06-19T01:37:02.908Z,16.32
2018-06-19T01:39:32.009Z,16.29
2018-06-19T01:42:01.112Z,16.24
2018-06-19T01:44:30.238Z,16.24
2018-06-19T01:46:59.368Z,16.22
2018-06-19T01:49:28.760Z,16.18
2018-06-19T01:51:57.895Z,16.20
2018-06-19T01:54:27.004Z,16.21
2018-06-19T01:56:56.104Z,16.42
2018-06-19T01:59:25.232Z,16.38
2018-06-19T02:01:54.688Z,16.38
2018-06-19T02:04:23.752Z,16.39
2018-06-19T02:06:52.929Z,16.39
2018-06-19T02:09:22.044Z,16.39
2018-06-19T02:11:51.481Z,16.38
2018-06-19T02:14:20.644Z,16.36
2018-06-19T02:16:49.816Z,16.35
2018-06-19T02:19:19.164Z,16.32
2018-06-19T02:21:48.240Z,16.30
2018-06-19T02:24:17.336Z,16.30
2018-06-19T02:26:46.684Z,16.36
2018-06-19T02:29:15.868Z,16.37
2018-06-19T02:31:45.011Z,16.47
2018-06-19T02:34:14.272Z,16.43
2018-06-19T02:36:43.413Z,16.40
2018-06-19T02:39:12.911Z,16.39
2018-06-19T02:41:41.956Z,16.32
2018-06-19T02:44:11.041Z,16.26
2018-06-19T02:46:40.146Z,16.26
2018-06-19T02:49:09.260Z,16.20
2018-06-19T02:51:38.560Z,16.16
2018-06-19T02:54:07.919Z,16.17
2018-06-19T02:56:37.144Z,16.12
2018-06-19T02:59:06.296Z,16.05
2018-06-19T03:01:35.404Z,16.02
2018-06-19T03:04:05.097Z,15.99
2018-06-19T03:06:34.226Z,15.93
2018-06-19T03:09:03.396Z,15.89
2018-06-19T03:11:32.536Z,15.87
2018-06-19T03:14:02.232Z,15.82
2018-06-19T03:16:31.444Z,15.81
2018-06-19T03:19:00.907Z,15.81
2018-06-19T03:21:30.208Z,15.76
2018-06-19T03:23:59.448Z,15.77
2018-06-19T03:26:28.564Z,15.75
2018-06-19T03:28:57.752Z,15.79
2018-06-19T03:31:26.933Z,15.82
2018-06-19T03:33:56.100Z,15.80
2018-06-19T03:36:25.196Z,15.82
2018-06-19T03:38:54.320Z,15.77
2018-06-19T03:41:23.666Z,15.79
2018-06-19T03:43:52.892Z,15.80
2018-06-19T03:46:22.024Z,15.81
2018-06-19T03:48:51.152Z,15.87
2018-06-19T03:51:20.297Z,15.89
2018-06-19T03:53:49.500Z,16.00
2018-06-19T03:56:18.620Z,16.02
2018-06-19T03:58:47.748Z,16.05
2018-06-19T04:01:16.993Z,16.07
2018-06-19T04:03:46.273Z,16.11
2018-06-19T04:06:15.805Z,16.13
2018-06-19T04:08:44.920Z,16.14
2018-06-19T04:11:14.302Z,16.23
2018-06-19T04:13:43.388Z,16.32
2018-06-19T04:16:12.512Z,16.36
2018-06-19T04:18:41.708Z,16.36
2018-06-19T04:21:10.889Z,16.39
2018-06-19T04:23:40.085Z,16.48
2018-06-19T04:26:09.461Z,16.51
2018-06-19T04:28:38.584Z,16.58
2018-06-19T04:31:07.888Z,16.61
2018-06-19T04:33:37.485Z,16.72
2018-06-19T04:36:06.637Z,16.77
2018-06-19T04:38:35.784Z,16.84
2018-06-19T04:41:05.852Z,16.86
2018-06-19T04:43:35.328Z,16.93
2018-06-19T04:46:04.586Z,16.91
2018-06-19T04:48:33.957Z,16.95
2018-06-19T04:51:03.056Z,17.02
2018-06-19T04:53:32.272Z,17.06
2018-06-19T04:56:01.605Z,17.15
2018-06-19T04:58:30.708Z,17.14
2018-06-19T05:00:59.844Z,17.18
2018-06-19T05:03:29.196Z,17.09
2018-06-19T05:05:59.193Z,17.22
2018-06-19T05:08:28.360Z,17.36
2018-06-19T05:10:57.468Z,17.39
2018-06-19T05:13:26.853Z,17.44
2018-06-19T05:15:55.964Z,17.54
2018-06-19T05:18:25.208Z,17.60
2018-06-19T05:20:55.280Z,17.76
2018-06-19T05:23:24.387Z,17.82
2018-06-19T05:25:54.404Z,17.95
2018-06-19T05:28:23.504Z,17.96
2018-06-19T05:30:53.365Z,17.99
2018-06-19T05:33:23.238Z,18.26
2018-06-19T05:35:53.389Z,18.28
2018-06-19T05:38:23.189Z,18.43
2018-06-19T05:40:53.148Z,18.54
2018-06-19T05:43:22.900Z,18.67
2018-06-19T05:45:52.808Z,18.76
2018-06-19T05:48:22.660Z,18.85
2018-06-19T05:50:52.581Z,18.92
2018-06-19T05:53:22.414Z,19.01
2018-06-19T05:55:52.340Z,19.21
2018-06-19T05:58:22.376Z,19.28
2018-06-19T06:00:52.417Z,19.45
2018-06-19T06:03:23.444Z,19.43
2018-06-19T06:05:54.804Z,19.54
2018-06-19T06:08:24.615Z,19.53
2018-06-19T06:10:54.581Z,19.72
2018-06-19T06:13:24.325Z,19.97
2018-06-19T06:15:54.115Z,20.21
2018-06-19T06:18:23.216Z,20.30
2018-06-19T06:20:53.070Z,20.38
2018-06-19T06:23:23.001Z,20.62
2018-06-19T06:25:53.154Z,20.92
2018-06-19T06:28:23.044Z,21.33
2018-06-19T06:30:52.894Z,21.61
2018-06-19T06:33:22.848Z,21.71
2018-06-19T06:35:52.884Z,21.72
2018-06-19T06:38:22.729Z,21.46
2018-06-19T06:40:52.850Z,21.32
2018-06-19T06:43:23.092Z,21.49
2018-06-19T06:45:52.933Z,21.55
2018-06-19T06:48:22.856Z,21.52
2018-06-19T06:50:52.545Z,21.84
2018-06-19T06:53:22.444Z,22.09
2018-06-19T06:55:52.448Z,22.37
2018-06-19T06:58:21.526Z,22.55
2018-06-19T07:00:51.312Z,22.67
2018-06-19T07:03:21.872Z,22.74
2018-06-19T07:05:52.224Z,22.70
2018-06-19T07:08:22.827Z,22.79
2018-06-19T07:10:52.851Z,22.80
2018-06-19T07:13:22.549Z,22.87
2018-06-19T07:15:52.270Z,23.13
2018-06-19T07:18:22.246Z,23.22
2018-06-19T07:20:52.045Z,23.26
2018-06-19T07:23:22.409Z,23.54
2018-06-19T07:25:52.351Z,23.76
2018-06-19T07:28:22.316Z,24.16
2018-06-19T07:30:52.330Z,24.42
2018-06-19T07:33:22.196Z,25.02
2018-06-19T07:35:51.941Z,25.56
2018-06-19T07:38:21.184Z,26.24
2018-06-19T07:40:50.953Z,26.81
2018-06-19T07:43:21.584Z,28.79
2018-06-19T07:45:51.492Z,30.77
2018-06-19T07:48:21.418Z,32.29
2018-06-19T07:50:50.640Z,32.85
2018-06-19T07:53:20.553Z,32.68
2018-06-19T07:55:50.365Z,33.04
2018-06-19T07:58:21.264Z,32.47
2018-06-19T08:00:51.268Z,33.55
2018-06-19T08:03:21.256Z,32.72
2018-06-19T08:05:51.167Z,31.99
2018-06-19T08:08:20.888Z,31.54
2018-06-19T08:10:50.003Z,32.38
2018-06-19T08:13:19.916Z,32.15
2018-06-19T08:15:50.119Z,32.07
2018-06-19T08:18:20.109Z,33.38
2018-06-19T08:20:50.169Z,32.11
2018-06-19T08:23:20.020Z,31.09
2018-06-19T08:25:49.312Z,30.10
2018-06-19T08:28:18.913Z,30.81
2018-06-19T08:30:49.037Z,32.04
2018-06-19T08:33:18.305Z,30.98
2018-06-19T08:35:48.765Z,30.55
2018-06-19T08:38:18.556Z,29.45
2018-06-19T08:40:47.709Z,28.19
2018-06-19T08:43:18.325Z,28.70
2018-06-19T08:45:48.693Z,31.62
2018-06-19T08:48:18.740Z,32.56
2018-06-19T08:50:48.794Z,32.64
2018-06-19T08:53:18.892Z,33.44
2018-06-19T08:55:48.031Z,32.05
2018-06-19T08:58:18.300Z,32.35
2018-06-19T09:00:48.226Z,31.41
2018-06-19T09:03:17.873Z,30.71
2018-06-19T09:05:47.716Z,29.76
2018-06-19T09:08:18.168Z,29.15
2018-06-19T09:10:47.635Z,28.98
2018-06-19T09:13:17.468Z,28.98
2018-06-19T09:15:46.657Z,28.90
2018-06-19T09:18:16.611Z,29.37
2018-06-19T09:20:46.512Z,31.26
2018-06-19T09:23:17.024Z,32.60
2018-06-19T09:25:47.061Z,33.45
2018-06-19T09:28:18.382Z,32.82
2018-06-19T09:30:48.435Z,31.84
2018-06-19T09:33:18.800Z,31.52
2018-06-19T09:35:48.896Z,30.11
2018-06-19T09:54:24.754Z,28.61
2018-06-19T09:56:55.552Z,28.89
2018-06-19T09:59:25.524Z,29.01
2018-06-19T10:01:55.523Z,29.02
2018-06-19T10:04:25.616Z,29.25
2018-06-19T10:06:54.813Z,29.41
2018-06-19T10:09:24.704Z,29.88
2018-06-19T10:11:54.559Z,29.34
2018-06-19T10:14:24.425Z,29.78
2018-06-19T10:16:54.245Z,29.58
2018-06-19T10:19:23.570Z,31.06
2018-06-19T10:21:53.537Z,30.98
2018-06-19T10:24:23.600Z,31.10
2018-06-19T10:26:53.824Z,32.36
2018-06-19T10:29:23.841Z,32.59
2018-06-19T10:31:53.875Z,32.54
2018-06-19T10:34:23.950Z,32.11
2018-06-19T10:36:53.660Z,32.89
2018-06-19T10:39:23.582Z,32.39
2018-06-19T10:41:53.888Z,31.79
2018-06-19T10:44:23.870Z,31.75
2018-06-19T10:46:54.589Z,31.28
2018-06-19T10:49:24.574Z,29.51
2018-06-19T10:51:54.866Z,29.15
2018-06-19T10:54:24.819Z,29.58
2018-06-19T10:56:55.877Z,29.33
2018-06-19T10:59:25.996Z,28.94
2018-06-19T11:01:56.826Z,29.80
2018-06-19T11:04:27.464Z,30.14
2018-06-19T11:06:57.680Z,30.34
2018-06-19T11:09:27.576Z,30.34
2018-06-19T11:11:58.099Z,29.60
2018-06-19T11:14:28.113Z,29.49
2018-06-19T11:16:57.968Z,29.16
2018-06-19T11:19:28.025Z,29.33
2018-06-19T11:21:59.021Z,30.08
2018-06-19T11:24:29.234Z,30.06
2018-06-19T11:26:59.348Z,30.22
2018-06-19T11:29:29.365Z,30.60
2018-06-19T11:31:59.384Z,30.65
2018-06-19T11:34:29.533Z,30.49
2018-06-19T11:36:59.316Z,31.21
2018-06-19T11:39:29.232Z,31.99
2018-06-19T11:41:59.116Z,32.14
2018-06-19T11:44:29.067Z,31.82
2018-06-19T11:47:00.089Z,31.50
2018-06-19T11:49:31.407Z,31.73
2018-06-19T11:52:01.230Z,31.97
2018-06-19T11:54:31.393Z,32.25
2018-06-19T11:57:01.403Z,32.21
2018-06-19T11:59:32.404Z,31.35
2018-06-19T12:02:03.132Z,30.85
2018-06-19T12:04:32.500Z,30.40
2018-06-19T12:07:03.026Z,30.31
2018-06-19T12:09:36.075Z,30.80
2018-06-19T12:12:06.639Z,30.74
2018-06-19T12:14:38.300Z,30.11
2018-06-19T12:17:09.242Z,29.59
2018-06-19T12:19:40.035Z,28.79
2018-06-19T12:22:10.391Z,29.10
2018-06-19T12:24:41.580Z,29.43
2018-06-19T12:27:15.166Z,29.43
2018-06-19T12:29:47.699Z,29.78
2018-06-19T12:32:18.170Z,30.19
2018-06-19T12:34:50.006Z,29.90
2018-06-19T12:37:25.382Z,28.93
2018-06-19T12:39:55.755Z,28.58
2018-06-19T12:42:26.866Z,28.38
2018-06-19T12:44:57.486Z,28.37
2018-06-19T12:47:29.248Z,28.38
2018-06-19T12:50:49.905Z,28.62
2018-06-19T12:53:36.959Z,28.37
2018-06-19T12:56:17.356Z,28.71
2018-06-19T12:58:48.635Z,28.73
2018-06-19T13:01:20.005Z,29.07
2018-06-19T13:06:12.228Z,28.50
2018-06-19T13:08:42.483Z,28.39
2018-06-19T13:11:12.856Z,28.80
2018-06-19T13:14:52.904Z,29.16
2018-06-19T13:17:39.912Z,29.08
2018-06-19T13:20:27.046Z,28.75
2018-06-19T13:22:56.809Z,29.42
2018-06-19T13:25:26.342Z,30.18
2018-06-19T13:27:55.978Z,30.80
2018-06-19T13:30:42.852Z,30.35
2018-06-19T13:33:12.080Z,29.53
2018-06-19T13:35:43.411Z,28.74
2018-06-19T13:38:13.806Z,28.91
2018-06-19T13:41:12.773Z,29.15
2018-06-19T13:44:02.286Z,29.04
2018-06-19T13:46:32.303Z,28.98
2018-06-19T13:49:01.408Z,29.36
2018-06-19T13:51:31.670Z,29.94
2018-06-19T13:54:02.909Z,29.46
2018-06-19T13:57:46.837Z,29.82
2018-06-19T14:00:18.881Z,29.98
2018-06-19T14:02:48.971Z,30.27
2018-06-19T14:05:20.606Z,29.68
2018-06-19T14:08:14.522Z,29.75
2018-06-19T14:11:00.972Z,29.23
2018-06-19T14:13:32.045Z,29.61
2018-06-19T14:16:02.906Z,29.03
2018-06-19T14:18:33.489Z,28.89
2018-06-19T14:21:03.131Z,29.18
2018-06-19T14:23:33.858Z,29.47
2018-06-19T14:26:03.337Z,29.49
2018-06-19T14:28:33.912Z,29.35
2018-06-19T14:31:03.755Z,29.64
2018-06-19T14:33:33.488Z,29.77
2018-06-19T14:36:03.667Z,30.22
2018-06-19T14:38:32.869Z,30.12
2018-06-19T14:41:05.084Z,29.77
2018-06-19T14:43:35.808Z,29.48
2018-06-19T14:46:05.877Z,29.23
2018-06-19T14:48:37.485Z,29.56
2018-06-19T14:51:08.191Z,30.02
2018-06-19T14:53:38.260Z,30.24
2018-06-19T14:56:08.910Z,30.34
2018-06-19T14:58:38.722Z,30.66
2018-06-19T15:01:08.641Z,30.26
2018-06-19T15:03:37.804Z,30.37
2018-06-19T15:06:07.617Z,30.31
2018-06-19T15:08:37.632Z,29.90
2018-06-19T15:11:07.837Z,29.51
2018-06-19T15:13:37.911Z,29.40
2018-06-19T15:16:08.726Z,29.51
2018-06-19T15:18:38.606Z,29.28
2018-06-19T15:21:08.785Z,29.46
2018-06-19T15:23:38.566Z,29.74
2018-06-19T15:26:08.513Z,29.58
2018-06-19T15:28:38.796Z,29.65
2018-06-19T15:31:07.949Z,29.33
2018-06-19T15:33:37.804Z,29.45
2018-06-19T15:36:07.668Z,29.51
2018-06-19T15:38:36.823Z,29.77
2018-06-19T15:41:06.680Z,29.55
2018-06-19T15:43:36.571Z,29.21
2018-06-19T15:46:06.655Z,28.61
2018-06-19T15:48:36.658Z,28.19
2018-06-19T15:51:06.793Z,28.39
2018-06-19T15:53:36.710Z,28.26
2018-06-19T15:56:06.664Z,28.40
2018-06-19T15:58:37.212Z,28.51
2018-06-19T16:01:06.300Z,28.54
2018-06-19T16:03:35.745Z,28.24
2018-06-19T16:06:05.524Z,28.06
2018-06-19T16:08:34.620Z,27.57
2018-06-19T16:11:04.371Z,27.11
2018-06-19T16:13:34.114Z,26.96
2018-06-19T16:16:03.993Z,27.08
2018-06-19T16:18:33.846Z,26.76
2018-06-19T16:21:02.992Z,26.84
2018-06-19T16:23:33.749Z,26.76
2018-06-19T16:26:02.977Z,26.78
2018-06-19T16:28:32.860Z,26.89
2018-06-19T16:31:01.996Z,26.85
2018-06-19T16:33:32.160Z,26.73
2018-06-19T16:36:03.088Z,26.76
2018-06-19T16:38:32.264Z,27.03
2018-06-19T16:41:01.392Z,27.03
2018-06-19T16:43:30.510Z,27.52
2018-06-19T16:46:00.465Z,27.54
2018-06-19T16:48:29.633Z,27.77
2018-06-19T16:50:59.617Z,27.81
2018-06-19T16:53:29.449Z,27.63
2018-06-19T16:55:58.612Z,27.64
2018-06-19T16:58:27.768Z,27.38
2018-06-19T17:00:57.173Z,27.51
2018-06-19T17:03:26.388Z,27.44
2018-06-19T17:05:56.532Z,27.64
2018-06-19T17:08:26.500Z,27.53
2018-06-19T17:10:55.621Z,27.65
2018-06-19T17:13:24.778Z,27.61
2018-06-19T17:15:54.756Z,27.59
2018-06-19T17:18:23.952Z,27.21
2018-06-19T17:20:53.858Z,27.29
2018-06-19T17:23:23.818Z,27.33
2018-06-19T17:25:53.712Z,27.41
2018-06-19T17:28:22.816Z,27.44
2018-06-19T17:30:52.609Z,27.38
2018-06-19T17:33:22.785Z,27.24
2018-06-19T17:35:52.752Z,27.18
2018-06-19T17:38:21.896Z,27.15
2018-06-19T17:40:51.054Z,26.70
2018-06-19T17:43:20.817Z,26.44
2018-06-19T17:45:50.057Z,26.37
2018-06-19T17:48:20.760Z,26.50
2018-06-19T17:50:50.134Z,26.48
2018-06-19T17:53:19.236Z,26.24
2018-06-19T17:55:48.669Z,26.18
2018-06-19T17:58:18.547Z,26.12
2018-06-19T18:00:48.620Z,26.20
2018-06-19T18:03:18.452Z,25.96
2018-06-19T18:05:47.928Z,25.90
2018-06-19T18:08:17.100Z,25.82
2018-06-19T18:10:46.264Z,25.75
2018-06-19T18:13:16.396Z,25.79
2018-06-19T18:15:45.600Z,25.68
2018-06-19T18:18:15.894Z,25.51
2018-06-19T18:20:44.964Z,25.42
2018-06-19T18:23:14.056Z,25.25
2018-06-19T18:25:43.472Z,25.10
2018-06-19T18:28:12.580Z,25.09
2018-06-19T18:30:42.273Z,25.11
2018-06-19T18:33:11.431Z,25.10
2018-06-19T18:35:40.529Z,25.03
2018-06-19T18:38:09.732Z,24.95
2018-06-19T18:40:38.820Z,25.00
2018-06-19T18:43:08.048Z,25.06
2018-06-19T18:45:38.176Z,24.99
2018-06-19T18:48:07.293Z,24.95
2018-06-19T18:50:36.462Z,24.98
2018-06-19T18:53:06.357Z,24.93
2018-06-19T18:55:35.532Z,24.87
2018-06-19T18:58:04.680Z,24.81
2018-06-19T19:00:34.601Z,24.71
2018-06-19T19:03:03.794Z,24.58
2018-06-19T19:05:32.989Z,24.35
2018-06-19T19:08:02.071Z,24.23
2018-06-19T19:10:36.468Z,24.26
2018-06-19T19:13:05.976Z,24.02
2018-06-19T19:15:41.244Z,23.81
2018-06-19T19:18:15.468Z,23.66
2018-06-19T19:20:45.104Z,23.45
2018-06-19T19:23:14.336Z,23.25
2018-06-19T19:25:43.577Z,23.08
2018-06-19T19:28:18.296Z,22.92
2018-06-19T19:30:47.867Z,22.71
2018-06-19T19:33:16.988Z,22.58
2018-06-19T19:35:46.401Z,22.52
2018-06-19T19:38:20.704Z,22.49
2018-06-19T19:40:50.358Z,22.40
2018-06-19T19:43:20.676Z,22.27
2018-06-19T19:45:49.836Z,22.06
2018-06-19T19:48:24.357Z,21.87
2018-06-19T19:50:53.480Z,21.81
2018-06-19T19:53:23.592Z,21.66
2018-06-19T19:55:58.085Z,21.52
2018-06-19T19:58:34.300Z,21.40
2018-06-19T20:01:03.445Z,21.23
2018-06-19T20:03:32.580Z,21.15
2018-06-19T20:06:02.022Z,21.05
2018-06-19T20:08:31.180Z,20.99
2018-06-19T20:11:00.236Z,20.98
2018-06-19T20:13:30.387Z,20.90
2018-06-19T20:16:00.496Z,20.80
2018-06-19T20:18:29.642Z,20.67
2018-06-19T20:20:58.784Z,20.60
2018-06-19T20:23:28.880Z,20.54
2018-06-19T20:25:58.844Z,20.50
2018-06-19T20:28:28.000Z,20.49
2018-06-19T20:30:57.140Z,20.41
2018-06-19T20:33:26.365Z,20.24
2018-06-19T20:35:55.516Z,20.10
2018-06-19T20:38:24.704Z,20.06
2018-06-19T20:40:54.901Z,20.02
2018-06-19T20:43:24.180Z,20.01
2018-06-19T20:45:53.305Z,19.95
2018-06-19T20:48:22.525Z,19.90
2018-06-19T20:50:52.645Z,19.87
2018-06-19T20:53:21.797Z,19.84
2018-06-19T20:55:50.988Z,19.73
2018-06-19T20:58:20.537Z,19.64
2018-06-19T21:00:49.688Z,19.56
2018-06-19T21:03:18.916Z,19.59
2018-06-19T21:05:48.600Z,19.53
2018-06-19T21:08:18.164Z,19.51
2018-06-19T21:10:47.229Z,19.54
2018-06-19T21:13:16.556Z,19.48
2018-06-19T21:15:45.734Z,19.36
2018-06-19T21:18:14.948Z,19.28
2018-06-19T21:20:45.069Z,19.27
2018-06-19T21:23:14.213Z,19.16
2018-06-19T21:25:43.340Z,19.12
2018-06-19T21:28:12.761Z,19.09
2018-06-19T21:30:41.840Z,19.07
2018-06-19T21:33:11.892Z,19.02
2018-06-19T21:35:41.886Z,19.00
2018-06-19T21:38:11.048Z,18.99
2018-06-19T21:40:40.170Z,18.88
2018-06-19T21:43:09.572Z,18.81
2018-06-19T21:45:38.685Z,18.75
2018-06-19T21:48:07.901Z,18.69
2018-06-19T21:50:37.912Z,18.68
2018-06-19T21:53:07.083Z,18.69
2018-06-19T21:55:36.184Z,18.64
2018-06-19T21:58:05.397Z,18.63
2018-06-19T22:00:35.380Z,18.59
2018-06-19T22:03:04.476Z,18.45
2018-06-19T22:05:34.272Z,18.44
2018-06-19T22:08:03.409Z,18.42
2018-06-19T22:10:32.496Z,18.43
2018-06-19T22:13:01.806Z,18.37
2018-06-19T22:15:30.861Z,18.35
2018-06-19T22:18:00.073Z,18.33
2018-06-19T22:20:29.816Z,18.30
2018-06-19T22:22:58.880Z,18.29
2018-06-19T22:25:28.050Z,18.26
2018-06-19T22:27:57.168Z,18.25
2018-06-19T22:30:26.913Z,18.24
2018-06-19T22:32:56.068Z,18.24
2018-06-19T22:35:25.943Z,18.22
2018-06-19T22:37:56.190Z,18.19
2018-06-19T22:40:25.337Z,18.13
2018-06-19T22:42:54.404Z,18.11
2018-06-19T22:45:23.580Z,18.09
2018-06-19T22:47:52.672Z,18.04
2018-06-19T22:50:22.748Z,18.06
2018-06-19T22:52:51.941Z,18.04
2018-06-19T22:55:21.008Z,17.97
2018-06-19T22:57:50.392Z,17.95
2018-06-19T23:00:21.097Z,17.95
2018-06-19T23:02:52.449Z,17.91
2018-06-19T23:05:21.584Z,17.90
2018-06-19T23:07:50.719Z,17.91
2018-06-19T23:10:20.085Z,17.92
2018-06-19T23:12:49.228Z,17.91
2018-06-19T23:15:18.398Z,17.84
2018-06-19T23:17:47.959Z,17.80
2018-06-19T23:20:17.085Z,17.75
2018-06-19T23:22:49.329Z,17.78
2018-06-19T23:25:18.844Z,17.75
2018-06-19T23:27:47.988Z,17.70
2018-06-19T23:30:18.218Z,17.64
2018-06-19T23:32:47.483Z,17.51
2018-06-19T23:35:16.612Z,17.48
2018-06-19T23:37:46.380Z,17.52
2018-06-19T23:40:15.515Z,17.51
2018-06-19T23:42:44.613Z,17.49
2018-06-19T23:45:13.876Z,17.47
2018-06-19T23:47:43.041Z,17.43
2018-06-19T23:50:12.269Z,17.35
2018-06-19T23:52:42.280Z,17.34
2018-06-19T23:55:11.480Z,17.28
2018-06-19T23:57:40.596Z,17.19
